Time;durP1;ratioP1;P1;durP2;ratioP2;P2;SDS_P1;SDS_P2;PMS_P1;PMS_P2;Temp;Humidity;BMP_temperature;BMP_pressure;BME280_temperature;BME280_humidity;BME280_pressure;Samples;Min_cycle;Max_cycle;Signal;HPM_P1;HPM_P2
2021/11/16 00:00:05;;;;;;;7.07;4.15;;;;;;;;;;5005340;28;20057;-84
2021/11/16 00:02:31;;;;;;;7.10;4.03;;;;;;;;;;5015774;28;20061;-85
2021/11/16 00:04:58;;;;;;;5.88;3.58;;;;;;;;;;5007065;28;20127;-85
2021/11/16 00:07:24;;;;;;;7.15;4.03;;;;;;;;;;5009327;28;20054;-84
2021/11/16 00:09:51;;;;;;;5.65;3.60;;;;;;;;;;5009299;28;20050;-85
2021/11/16 00:12:17;;;;;;;7.65;4.18;;;;;;;;;;4992474;28;20034;-84
2021/11/16 00:14:44;;;;;;;6.10;3.65;;;;;;;;;;5008479;28;20421;-84
2021/11/16 00:17:10;;;;;;;5.97;3.42;;;;;;;;;;5010242;28;20068;-86
2021/11/16 00:19:37;;;;;;;7.60;3.90;;;;;;;;;;5009700;28;20062;-85
2021/11/16 00:22:04;;;;;;;6.93;3.70;;;;;;;;;;5003726;28;20057;-85
2021/11/16 00:24:46;;;;;;;6.72;3.83;;;;;;;;;;5015555;28;20053;-84
2021/11/16 00:27:12;;;;;;;;;;;;;;;;;;5011876;28;20065;-86
2021/11/16 00:29:38;;;;;;;7.15;4.00;;;;;;;;;;5010007;28;20806;-86
2021/11/16 00:32:06;;;;;;;7.70;4.20;;;;;;;;;;5010351;28;20062;-86
2021/11/16 00:34:33;;;;;;;7.10;3.97;;;;;;;;;;5013572;28;20076;-86
2021/11/16 00:37:00;;;;;;;6.68;3.53;;;;;;;;;;4991917;28;20054;-85
2021/11/16 00:39:26;;;;;;;6.28;3.60;;;;;;;;;;5010130;28;20061;-86
2021/11/16 00:41:52;;;;;;;6.18;3.65;;;;;;;;;;5008603;28;20506;-85
2021/11/16 00:44:19;;;;;;;7.13;4.00;;;;;;;;;;5011409;28;20053;-86
2021/11/16 00:46:45;;;;;;;6.38;3.92;;;;;;;;;;5010865;28;20068;-90
2021/11/16 00:49:12;;;;;;;6.90;4.00;;;;;;;;;;5010347;28;20139;-89
2021/11/16 00:51:39;;;;;;;6.18;3.90;;;;;;;;;;5009788;28;20041;-89
2021/11/16 00:54:05;;;;;;;5.88;3.45;;;;;;;;;;4997099;28;20050;-89
2021/11/16 00:56:32;;;;;;;5.70;3.75;;;;;;;;;;5011360;28;20506;-92
2021/11/16 00:58:58;;;;;;;5.20;3.50;;;;;;;;;;5013505;28;20042;-90
2021/11/16 01:01:25;;;;;;;6.07;3.92;;;;;;;;;;5010040;28;20089;-87
2021/11/16 01:03:51;;;;;;;7.53;4.13;;;;;;;;;;5012436;28;20022;-88
2021/11/16 01:06:18;;;;;;;6.22;4.03;;;;;;;;;;5011683;28;20072;-87
2021/11/16 01:08:44;;;;;;;5.38;3.35;;;;;;;;;;5008409;28;20968;-88
2021/11/16 01:11:10;;;;;;;5.47;3.22;;;;;;;;;;5017170;28;20620;-86
2021/11/16 01:13:37;;;;;;;6.28;3.30;;;;;;;;;;5010502;28;20077;-88
2021/11/16 01:16:05;;;;;;;7.38;3.83;;;;;;;;;;5020854;28;20049;-88
2021/11/16 01:18:32;;;;;;;6.05;3.60;;;;;;;;;;5010162;28;20038;-86
2021/11/16 01:20:58;;;;;;;5.75;3.50;;;;;;;;;;5003388;28;20061;-86
2021/11/16 01:23:25;;;;;;;5.82;3.67;;;;;;;;;;5006747;28;20072;-86
2021/11/16 01:25:52;;;;;;;6.60;3.50;;;;;;;;;;5011208;28;20147;-84
2021/11/16 01:28:24;;;;;;;6.82;3.67;;;;;;;;;;5009359;28;20066;-84
2021/11/16 01:30:52;;;;;;;6.97;3.58;;;;;;;;;;5009563;28;20062;-86
2021/11/16 01:33:26;;;;;;;4.70;3.17;;;;;;;;;;5010067;28;20029;-85
2021/11/16 01:35:53;;;;;;;6.32;4.03;;;;;;;;;;5009162;28;20065;-87
2021/11/16 01:38:20;;;;;;;7.00;3.90;;;;;;;;;;5008789;28;20450;-85
2021/11/16 01:40:48;;;;;;;6.38;3.33;;;;;;;;;;5010406;28;20091;-87
2021/11/16 01:43:15;;;;;;;6.45;3.90;;;;;;;;;;5008005;28;20029;-86
2021/11/16 01:45:42;;;;;;;6.47;3.60;;;;;;;;;;5007833;28;20061;-87
2021/11/16 01:48:09;;;;;;;6.88;3.85;;;;;;;;;;5011494;28;20053;-90
2021/11/16 01:50:37;;;;;;;5.90;3.65;;;;;;;;;;5008321;28;20427;-89
2021/11/16 01:53:03;;;;;;;6.32;3.80;;;;;;;;;;5008196;28;20057;-87
2021/11/16 01:55:30;;;;;;;5.15;3.42;;;;;;;;;;5011209;28;20057;-87
2021/11/16 01:57:57;;;;;;;6.18;3.88;;;;;;;;;;5007894;28;20404;-82
2021/11/16 02:00:28;;;;;;;7.15;3.60;;;;;;;;;;5008890;28;20049;-87
2021/11/16 02:02:55;;;;;;;6.47;3.45;;;;;;;;;;5010709;28;20069;-88
2021/11/16 02:05:34;;;;;;;6.50;3.65;;;;;;;;;;5010075;28;20045;-87
2021/11/16 02:08:01;;;;;;;6.53;3.53;;;;;;;;;;5005573;28;20038;-87
2021/11/16 02:10:27;;;;;;;5.88;3.72;;;;;;;;;;5009928;28;20057;-86
2021/11/16 02:12:53;;;;;;;6.55;3.35;;;;;;;;;;5010357;28;20030;-87
2021/11/16 02:15:20;;;;;;;6.50;3.83;;;;;;;;;;4993323;28;20038;-87
2021/11/16 02:17:48;;;;;;;5.75;3.45;;;;;;;;;;5009779;28;20111;-86
2021/11/16 02:20:16;;;;;;;5.80;3.42;;;;;;;;;;5009861;28;20501;-87
2021/11/16 02:22:44;;;;;;;5.95;3.45;;;;;;;;;;5001753;28;20073;-87
2021/11/16 02:25:11;;;;;;;4.32;2.90;;;;;;;;;;4992229;28;20062;-86
2021/11/16 02:27:37;;;;;;;6.18;3.63;;;;;;;;;;5007352;28;20069;-86
2021/11/16 02:30:07;;;;;;;5.45;3.42;;;;;;;;;;5008829;28;21002;-85
2021/11/16 02:32:34;;;;;;;5.28;3.45;;;;;;;;;;5008992;28;20046;-87
2021/11/16 02:35:01;;;;;;;6.53;3.42;;;;;;;;;;5007593;28;20069;-85
2021/11/16 02:37:31;;;;;;;6.18;3.45;;;;;;;;;;5005525;28;20112;-87
2021/11/16 02:39:58;;;;;;;6.20;3.63;;;;;;;;;;5008992;28;20497;-87
2021/11/16 02:42:26;;;;;;;6.13;3.72;;;;;;;;;;5014254;28;20123;-86
2021/11/16 02:44:52;;;;;;;6.03;3.80;;;;;;;;;;5009976;28;20135;-87
2021/11/16 02:47:18;;;;;;;5.85;3.30;;;;;;;;;;5007024;28;20088;-86
2021/11/16 02:49:48;;;;;;;7.13;4.15;;;;;;;;;;5006783;28;21300;-86
2021/11/16 02:52:15;;;;;;;5.57;3.33;;;;;;;;;;5008466;28;20068;-88
2021/11/16 02:54:42;;;;;;;6.40;3.67;;;;;;;;;;5000814;28;20033;-85
2021/11/16 02:57:10;;;;;;;6.68;3.70;;;;;;;;;;5008408;28;20069;-86
2021/11/16 02:59:36;;;;;;;5.80;3.42;;;;;;;;;;5008438;28;20053;-86
2021/11/16 03:02:05;;;;;;;7.10;3.65;;;;;;;;;;5005852;28;20769;-86
2021/11/16 03:04:33;;;;;;;7.50;3.75;;;;;;;;;;5000753;28;20049;-86
2021/11/16 03:07:04;;;;;;;6.28;3.30;;;;;;;;;;5007914;28;20909;-86
2021/11/16 03:09:33;;;;;;;6.30;3.63;;;;;;;;;;4990400;28;20497;-85
2021/11/16 03:12:00;;;;;;;6.25;3.53;;;;;;;;;;5013817;28;20046;-85
2021/11/16 03:14:26;;;;;;;6.25;3.70;;;;;;;;;;4988519;28;20119;-85
2021/11/16 03:16:54;;;;;;;5.03;3.03;;;;;;;;;;5007893;28;20062;-86
2021/11/16 03:19:21;;;;;;;6.18;3.47;;;;;;;;;;5008511;28;20038;-85
2021/11/16 03:21:58;;;;;;;7.30;3.88;;;;;;;;;;5006291;28;20057;-84
2021/11/16 03:24:26;;;;;;;5.78;3.65;;;;;;;;;;5003150;28;20085;-88
2021/11/16 03:26:53;;;;;;;5.80;3.20;;;;;;;;;;5010258;28;20435;-89
2021/11/16 03:29:26;;;;;;;5.80;3.42;;;;;;;;;;5008318;28;20062;-84
2021/11/16 03:32:01;;;;;;;5.93;3.47;;;;;;;;;;5007719;28;20061;-85
2021/11/16 03:34:28;;;;;;;6.38;3.78;;;;;;;;;;4990449;28;20737;-85
2021/11/16 03:36:55;;;;;;;6.35;3.08;;;;;;;;;;5012646;28;20100;-86
2021/11/16 03:39:21;;;;;;;5.78;3.15;;;;;;;;;;5008327;28;20120;-85
2021/11/16 03:41:48;;;;;;;6.15;3.60;;;;;;;;;;4990090;28;20189;-85
2021/11/16 03:44:14;;;;;;;5.97;2.95;;;;;;;;;;5015974;28;20057;-86
2021/11/16 03:46:40;;;;;;;4.97;3.03;;;;;;;;;;5011532;28;20054;-87
2021/11/16 03:49:10;;;;;;;6.47;3.40;;;;;;;;;;5010737;28;20093;-85
2021/11/16 03:51:36;;;;;;;5.53;3.42;;;;;;;;;;5010385;28;20528;-83
2021/11/16 03:54:03;;;;;;;6.68;3.25;;;;;;;;;;5011551;28;20087;-85
2021/11/16 03:56:30;;;;;;;5.93;3.42;;;;;;;;;;5013680;28;20062;-85
2021/11/16 03:58:56;;;;;;;5.13;3.15;;;;;;;;;;5008880;28;20062;-85
2021/11/16 04:01:23;;;;;;;5.05;3.17;;;;;;;;;;5011996;28;20077;-86
2021/11/16 04:03:50;;;;;;;5.80;3.13;;;;;;;;;;5008183;28;20540;-87
2021/11/16 04:06:17;;;;;;;6.68;3.83;;;;;;;;;;5011594;28;20072;-86
2021/11/16 04:08:44;;;;;;;5.65;3.13;;;;;;;;;;5009042;28;20081;-86
2021/11/16 04:11:11;;;;;;;6.65;3.10;;;;;;;;;;5008471;28;20398;-86
2021/11/16 04:13:37;;;;;;;6.28;3.33;;;;;;;;;;4991352;28;20049;-86
2021/11/16 04:16:05;;;;;;;5.63;3.30;;;;;;;;;;5007834;28;20066;-86
2021/11/16 04:18:32;;;;;;;6.07;3.20;;;;;;;;;;5010783;28;20057;-87
2021/11/16 04:20:59;;;;;;;6.35;3.20;;;;;;;;;;5007974;28;20513;-86
2021/11/16 04:23:25;;;;;;;5.25;3.42;;;;;;;;;;5010381;28;20050;-86
2021/11/16 04:25:52;;;;;;;6.10;3.30;;;;;;;;;;5008810;28;20065;-87
2021/11/16 04:28:19;;;;;;;5.38;3.53;;;;;;;;;;4991635;28;20080;-85
2021/11/16 04:30:45;;;;;;;5.47;3.03;;;;;;;;;;5007155;28;22390;-88
2021/11/16 04:33:13;;;;;;;6.53;3.60;;;;;;;;;;5009293;28;20042;-82
2021/11/16 04:35:39;;;;;;;5.07;2.85;;;;;;;;;;5008319;28;20159;-81
2021/11/16 04:38:07;;;;;;;4.68;2.85;;;;;;;;;;5007672;28;20088;-80
2021/11/16 04:40:38;;;;;;;5.75;3.50;;;;;;;;;;5007097;28;20433;-79
2021/11/16 04:43:10;;;;;;;7.32;4.28;;;;;;;;;;4994396;28;20561;-79
2021/11/16 04:45:38;;;;;;;6.47;4.30;;;;;;;;;;5006525;28;20584;-80
2021/11/16 04:48:17;;;;;;;6.05;4.05;;;;;;;;;;4994139;28;20088;-79
2021/11/16 04:53:54;;;;;;;5.93;4.07;;;;;;;;;;5007529;28;20116;-79
2021/11/16 05:04:37;;;;;;;7.25;3.83;;;;;;;;;;5007296;28;20088;-80
2021/11/16 05:07:10;;;;;;;12.43;5.68;;;;;;;;;;5009656;28;20536;-81
2021/11/16 05:09:36;;;;;;;11.68;5.05;;;;;;;;;;5005189;28;20107;-81
2021/11/16 05:12:03;;;;;;;10.32;5.25;;;;;;;;;;5010716;28;20050;-79
2021/11/16 05:14:29;;;;;;;14.68;5.70;;;;;;;;;;5001682;28;20049;-80
2021/11/16 05:16:56;;;;;;;13.48;5.63;;;;;;;;;;5006515;28;20070;-78
2021/11/16 05:19:22;;;;;;;17.30;6.53;;;;;;;;;;4995937;28;20119;-82
2021/11/16 05:21:50;;;;;;;16.27;6.18;;;;;;;;;;5007486;28;20120;-81
2021/11/16 05:24:17;;;;;;;17.38;7.05;;;;;;;;;;5006747;28;20080;-81
2021/11/16 05:26:44;;;;;;;15.20;6.72;;;;;;;;;;5005300;28;20049;-79
2021/11/16 05:29:11;;;;;;;17.63;5.78;;;;;;;;;;5002346;28;20077;-78
2021/11/16 05:31:37;;;;;;;15.23;6.07;;;;;;;;;;5004833;28;20074;-80
2021/11/16 05:34:12;;;;;;;15.25;6.18;;;;;;;;;;5007918;28;20073;-82
2021/11/16 05:36:39;;;;;;;14.32;6.10;;;;;;;;;;5005417;28;20054;-81
2021/11/16 05:39:06;;;;;;;18.48;7.18;;;;;;;;;;5006391;28;20572;-80
2021/11/16 05:41:33;;;;;;;17.65;7.00;;;;;;;;;;5005378;28;20065;-80
2021/11/16 05:43:59;;;;;;;17.13;6.55;;;;;;;;;;5003024;28;20065;-81
2021/11/16 05:46:26;;;;;;;14.00;5.65;;;;;;;;;;5001862;28;20057;-81
2021/11/16 05:48:54;;;;;;;13.60;6.28;;;;;;;;;;5006240;28;20053;-81
2021/11/16 05:51:23;;;;;;;14.77;6.45;;;;;;;;;;5002320;28;20164;-80
2021/11/16 05:53:57;;;;;;;11.32;6.35;;;;;;;;;;5002453;28;20694;-82
2021/11/16 05:56:25;;;;;;;13.27;6.28;;;;;;;;;;5008921;28;20102;-80
2021/11/16 05:58:53;;;;;;;10.73;5.40;;;;;;;;;;5010320;28;20100;-85
2021/11/16 06:01:21;;;;;;;10.98;4.93;;;;;;;;;;5004585;28;20044;-82
2021/11/16 06:03:54;;;;;;;10.80;4.85;;;;;;;;;;5005741;28;21347;-81
2021/11/16 06:06:21;;;;;;;12.63;4.90;;;;;;;;;;5007181;28;20673;-82
2021/11/16 06:08:48;;;;;;;11.10;5.03;;;;;;;;;;5006388;28;20057;-81
2021/11/16 06:11:17;;;;;;;9.68;4.53;;;;;;;;;;5012474;28;20061;-82
2021/11/16 06:13:44;;;;;;;8.52;4.22;;;;;;;;;;5011508;28;20057;-81
2021/11/16 06:16:10;;;;;;;11.02;4.55;;;;;;;;;;5003934;28;20049;-81
2021/11/16 06:18:37;;;;;;;7.65;4.30;;;;;;;;;;4996884;28;20058;-82
2021/11/16 06:21:03;;;;;;;9.80;4.75;;;;;;;;;;5009032;28;20053;-81
2021/11/16 06:23:30;;;;;;;10.60;4.57;;;;;;;;;;5005856;28;20073;-82
2021/11/16 06:25:56;;;;;;;8.55;4.80;;;;;;;;;;5006376;28;20580;-81
2021/11/16 06:28:23;;;;;;;8.52;4.20;;;;;;;;;;5004703;28;20068;-82
2021/11/16 06:30:49;;;;;;;8.02;4.40;;;;;;;;;;5006768;28;20057;-82
2021/11/16 06:33:22;;;;;;;10.45;4.28;;;;;;;;;;5006298;28;20073;-82
2021/11/16 06:35:49;;;;;;;8.63;4.07;;;;;;;;;;4968711;28;20065;-80
2021/11/16 06:38:15;;;;;;;8.25;3.70;;;;;;;;;;5005602;28;20073;-82
2021/11/16 06:40:47;;;;;;;8.32;3.90;;;;;;;;;;5006495;28;20111;-81
2021/11/16 06:43:22;;;;;;;9.23;4.32;;;;;;;;;;5009140;28;20139;-82
2021/11/16 06:45:53;;;;;;;8.55;4.78;;;;;;;;;;5010726;28;21392;-82
2021/11/16 06:48:19;;;;;;;8.80;4.00;;;;;;;;;;5011341;28;20064;-82
2021/11/16 06:50:47;;;;;;;6.75;4.07;;;;;;;;;;5002769;28;20389;-81
2021/11/16 06:53:13;;;;;;;7.93;4.10;;;;;;;;;;5007434;28;20431;-82
2021/11/16 06:55:40;;;;;;;6.13;3.70;;;;;;;;;;5007019;28;22084;-81
2021/11/16 06:58:07;;;;;;;6.50;3.83;;;;;;;;;;5007798;28;20074;-81
2021/11/16 07:00:34;;;;;;;8.48;4.00;;;;;;;;;;5004271;28;20054;-82
2021/11/16 07:03:03;;;;;;;7.80;3.70;;;;;;;;;;5009236;28;20136;-82
2021/11/16 07:05:30;;;;;;;7.13;3.92;;;;;;;;;;5005510;28;20041;-82
2021/11/16 07:07:57;;;;;;;7.38;3.58;;;;;;;;;;5010859;28;20177;-82
2021/11/16 07:10:31;;;;;;;7.82;3.75;;;;;;;;;;5007984;28;20084;-82
2021/11/16 07:13:04;;;;;;;11.20;4.22;;;;;;;;;;5008129;28;20053;-82
2021/11/16 07:15:34;;;;;;;6.03;3.45;;;;;;;;;;5008431;28;20066;-82
2021/11/16 07:18:02;;;;;;;9.80;3.75;;;;;;;;;;5009810;28;20066;-81
2021/11/16 07:20:29;;;;;;;8.05;3.97;;;;;;;;;;5010677;28;20453;-83
2021/11/16 07:22:56;;;;;;;7.18;3.35;;;;;;;;;;5007156;28;20081;-82
2021/11/16 07:25:23;;;;;;;6.45;3.47;;;;;;;;;;5007499;28;20117;-82
2021/11/16 07:27:55;;;;;;;8.05;4.28;;;;;;;;;;5005901;28;20058;-83
2021/11/16 07:30:25;;;;;;;5.47;3.15;;;;;;;;;;4980842;28;20077;-82
2021/11/16 07:32:55;;;;;;;7.38;3.83;;;;;;;;;;5013214;28;20100;-82
2021/11/16 07:35:25;;;;;;;7.50;4.27;;;;;;;;;;4994222;28;20614;-83
2021/11/16 07:37:54;;;;;;;6.95;3.65;;;;;;;;;;4977784;28;20128;-82
2021/11/16 07:40:21;;;;;;;6.05;3.63;;;;;;;;;;5003215;28;20128;-83
2021/11/16 07:42:49;;;;;;;6.45;3.53;;;;;;;;;;5010137;28;20050;-82
2021/11/16 07:45:17;;;;;;;7.45;3.90;;;;;;;;;;5005100;28;20085;-82
2021/11/16 07:47:48;;;;;;;5.82;3.53;;;;;;;;;;5008939;28;20133;-82
2021/11/16 07:50:35;;;;;;;9.10;3.90;;;;;;;;;;5006466;28;20054;-82
2021/11/16 07:53:13;;;;;;;7.47;4.00;;;;;;;;;;4995117;28;20030;-81
2021/11/16 07:55:41;;;;;;;6.03;3.60;;;;;;;;;;5003333;28;20092;-82
2021/11/16 07:58:08;;;;;;;7.28;3.53;;;;;;;;;;5006267;28;20054;-82
2021/11/16 08:00:37;;;;;;;8.00;4.05;;;;;;;;;;5002727;28;20112;-81
2021/11/16 08:03:09;;;;;;;7.22;3.83;;;;;;;;;;5007282;28;20069;-83
2021/11/16 08:05:45;;;;;;;7.45;3.28;;;;;;;;;;5000335;28;20061;-82
2021/11/16 08:11:07;;;;;;;7.55;3.70;;;;;;;;;;4999061;28;20045;-83
2021/11/16 08:13:35;;;;;;;6.43;3.80;;;;;;;;;;5007080;28;20639;-82
2021/11/16 08:16:08;;;;;;;6.78;3.60;;;;;;;;;;5006303;28;20062;-83
2021/11/16 08:18:55;;;;;;;7.63;3.95;;;;;;;;;;5005997;28;20057;-83
2021/11/16 08:21:22;;;;;;;6.40;3.50;;;;;;;;;;5004801;28;20053;-81
2021/11/16 08:23:54;;;;;;;7.75;3.67;;;;;;;;;;5008140;28;20057;-82
2021/11/16 08:26:21;;;;;;;6.93;4.22;;;;;;;;;;5011131;28;20444;-82
2021/11/16 08:28:48;;;;;;;6.10;3.60;;;;;;;;;;5008205;28;20030;-81
2021/11/16 08:31:15;;;;;;;6.43;3.95;;;;;;;;;;5009092;28;20026;-82
2021/11/16 08:33:42;;;;;;;6.53;3.85;;;;;;;;;;5005683;28;20057;-83
2021/11/16 08:36:09;;;;;;;7.00;3.47;;;;;;;;;;5009203;28;20076;-82
2021/11/16 08:38:36;;;;;;;6.60;3.40;;;;;;;;;;5007112;28;20070;-81
2021/11/16 08:41:03;;;;;;;7.47;3.45;;;;;;;;;;4990966;28;20096;-84
2021/11/16 08:43:36;;;;;;;6.57;3.38;;;;;;;;;;5009882;28;20066;-84
2021/11/16 08:46:04;;;;;;;6.30;3.58;;;;;;;;;;4996284;28;20413;-84
2021/11/16 08:48:31;;;;;;;8.00;3.90;;;;;;;;;;4978162;28;20057;-83
2021/11/16 08:51:11;;;;;;;5.60;3.28;;;;;;;;;;5010983;28;20062;-83
2021/11/16 08:53:39;;;;;;;5.72;3.78;;;;;;;;;;5002989;28;20560;-83
2021/11/16 08:56:07;;;;;;;6.05;3.72;;;;;;;;;;5009265;28;20140;-83
2021/11/16 08:58:34;;;;;;;8.43;3.47;;;;;;;;;;5008244;28;20501;-83
2021/11/16 09:01:04;;;;;;;5.65;3.70;;;;;;;;;;5009299;28;20054;-83
2021/11/16 09:03:35;;;;;;;6.22;3.42;;;;;;;;;;5007265;28;20123;-83
2021/11/16 09:06:02;;;;;;;8.10;4.22;;;;;;;;;;5008422;28;20061;-84
2021/11/16 09:08:33;;;;;;;6.43;3.72;;;;;;;;;;5004442;28;20058;-82
2021/11/16 09:10:59;;;;;;;6.47;3.88;;;;;;;;;;5007455;28;20046;-84
2021/11/16 09:13:28;;;;;;;6.93;3.67;;;;;;;;;;4996765;28;20068;-83
2021/11/16 09:16:02;;;;;;;6.38;3.92;;;;;;;;;;5007153;28;20065;-84
2021/11/16 09:18:30;;;;;;;6.07;3.45;;;;;;;;;;5006414;28;20069;-84
2021/11/16 09:21:10;;;;;;;6.97;4.00;;;;;;;;;;5010974;28;20038;-84
2021/11/16 09:23:43;;;;;;;6.57;4.30;;;;;;;;;;4992696;28;20092;-84
2021/11/16 09:26:17;;;;;;;7.60;4.10;;;;;;;;;;5010463;28;20605;-84
2021/11/16 09:28:49;;;;;;;6.72;3.70;;;;;;;;;;5009560;28;20152;-83
2021/11/16 09:31:15;;;;;;;;;;;;;;;;;;5009184;28;20033;-83
2021/11/16 09:33:41;;;;;;;6.05;3.53;;;;;;;;;;5009320;28;19945;-83
2021/11/16 09:36:08;;;;;;;6.28;3.90;;;;;;;;;;5009666;28;20119;-84
2021/11/16 09:38:42;;;;;;;7.57;3.78;;;;;;;;;;5005585;28;20113;-83
2021/11/16 09:41:10;;;;;;;6.55;3.72;;;;;;;;;;5008550;28;20446;-83
2021/11/16 09:43:36;;;;;;;7.28;3.88;;;;;;;;;;5009456;28;20061;-84
2021/11/16 09:46:04;;;;;;;9.27;4.25;;;;;;;;;;5008128;28;20662;-84
2021/11/16 09:48:32;;;;;;;6.95;3.55;;;;;;;;;;5006896;28;20069;-83
2021/11/16 09:50:58;;;;;;;6.65;3.55;;;;;;;;;;5009953;28;20061;-83
2021/11/16 09:53:25;;;;;;;5.85;3.25;;;;;;;;;;5008288;28;20064;-83
2021/11/16 09:55:51;;;;;;;6.40;3.92;;;;;;;;;;5011468;28;20138;-84
2021/11/16 09:58:23;;;;;;;6.28;3.55;;;;;;;;;;5011101;28;20057;-83
2021/11/16 10:00:50;;;;;;;6.88;3.63;;;;;;;;;;5006813;28;20126;-83
2021/11/16 10:03:18;;;;;;;5.43;3.80;;;;;;;;;;5006640;28;20096;-83
2021/11/16 10:05:47;;;;;;;6.57;3.88;;;;;;;;;;5005609;28;20542;-82
2021/11/16 10:08:14;;;;;;;6.95;4.55;;;;;;;;;;5013093;28;20058;-84
2021/11/16 10:10:42;;;;;;;9.95;6.13;;;;;;;;;;5005835;28;20128;-83
2021/11/16 10:13:11;;;;;;;9.65;5.97;;;;;;;;;;5008329;28;20112;-83
2021/11/16 10:15:40;;;;;;;9.40;6.53;;;;;;;;;;5005195;28;20065;-83
2021/11/16 10:18:07;;;;;;;8.20;5.65;;;;;;;;;;5006467;28;20054;-84
2021/11/16 10:20:35;;;;;;;8.85;5.75;;;;;;;;;;5010172;28;20107;-84
2021/11/16 10:23:03;;;;;;;11.07;6.25;;;;;;;;;;5008041;28;20122;-85
2021/11/16 10:25:34;;;;;;;9.48;5.40;;;;;;;;;;5011055;28;20608;-84
2021/11/16 10:28:11;;;;;;;8.15;5.10;;;;;;;;;;5008886;28;20077;-85
2021/11/16 10:30:38;;;;;;;7.68;4.68;;;;;;;;;;5009923;28;20706;-82
2021/11/16 10:33:12;;;;;;;8.27;5.47;;;;;;;;;;5008528;28;20115;-82
2021/11/16 10:35:40;;;;;;;8.48;5.05;;;;;;;;;;5006158;28;20061;-83
2021/11/16 10:38:09;;;;;;;7.03;4.63;;;;;;;;;;5012757;28;20062;-83
2021/11/16 10:40:36;;;;;;;7.70;4.85;;;;;;;;;;5007525;28;20068;-85
2021/11/16 10:43:03;;;;;;;7.57;4.80;;;;;;;;;;5007042;28;20069;-82
2021/11/16 10:45:32;;;;;;;10.57;5.28;;;;;;;;;;5006593;28;20678;-83
2021/11/16 10:48:00;;;;;;;7.20;4.40;;;;;;;;;;5007691;28;20128;-83
2021/11/16 10:50:29;;;;;;;6.32;3.90;;;;;;;;;;4994675;28;20123;-83
2021/11/16 10:53:02;;;;;;;8.43;5.10;;;;;;;;;;5009492;28;20116;-84
2021/11/16 10:55:39;;;;;;;7.32;4.95;;;;;;;;;;5006259;28;20047;-82
2021/11/16 10:58:06;;;;;;;6.80;4.65;;;;;;;;;;5008481;28;20123;-84
2021/11/16 11:00:38;;;;;;;7.78;4.47;;;;;;;;;;4988589;28;20058;-83
2021/11/16 11:03:25;;;;;;;8.30;4.90;;;;;;;;;;5007587;28;20049;-84
2021/11/16 11:05:53;;;;;;;7.78;4.50;;;;;;;;;;5002814;28;20050;-85
2021/11/16 11:08:30;;;;;;;8.02;4.65;;;;;;;;;;4985809;28;20096;-83
2021/11/16 11:10:56;;;;;;;7.30;4.30;;;;;;;;;;4997940;28;20304;-85
2021/11/16 11:13:26;;;;;;;7.93;4.55;;;;;;;;;;5005459;28;20049;-82
2021/11/16 11:15:52;;;;;;;8.18;4.75;;;;;;;;;;5007843;28;20073;-84
2021/11/16 11:18:39;;;;;;;8.05;4.97;;;;;;;;;;4992093;28;20446;-82
2021/11/16 11:21:08;;;;;;;8.77;5.07;;;;;;;;;;5005323;28;21259;-84
2021/11/16 11:23:41;;;;;;;7.50;4.55;;;;;;;;;;5001561;28;20567;-83
2021/11/16 11:26:30;;;;;;;7.63;4.82;;;;;;;;;;5005241;28;20459;-84
2021/11/16 11:29:32;;;;;;;7.82;4.65;;;;;;;;;;5003921;28;21321;-81
2021/11/16 11:31:56;;;;;;;9.23;5.00;;;;;;;;;;4990542;28;20413;-82
2021/11/16 11:34:30;;;;;;;7.68;4.43;;;;;;;;;;5006840;28;20026;-80
2021/11/16 11:37:04;;;;;;;7.40;4.88;;;;;;;;;;5006385;28;20034;-81
2021/11/16 11:39:32;;;;;;;7.05;4.47;;;;;;;;;;5009206;28;20092;-81
2021/11/16 11:41:59;;;;;;;8.65;4.78;;;;;;;;;;4997877;28;20139;-81
2021/11/16 11:44:27;;;;;;;11.45;4.53;;;;;;;;;;5007284;28;20061;-81
2021/11/16 11:46:58;;;;;;;8.00;4.80;;;;;;;;;;5009760;28;20503;-82
2021/11/16 11:49:25;;;;;;;10.60;4.78;;;;;;;;;;5010329;28;20061;-81
2021/11/16 11:51:54;;;;;;;7.47;4.70;;;;;;;;;;5005110;28;20062;-82
2021/11/16 11:54:20;;;;;;;7.07;4.43;;;;;;;;;;5009989;28;20748;-82
2021/11/16 11:56:48;;;;;;;6.90;4.20;;;;;;;;;;5012885;28;20583;-82
2021/11/16 11:59:15;;;;;;;8.07;4.20;;;;;;;;;;5012463;28;20054;-81
2021/11/16 12:01:42;;;;;;;8.68;4.72;;;;;;;;;;5012951;28;20524;-81
2021/11/16 12:04:09;;;;;;;7.43;4.43;;;;;;;;;;5007194;28;20128;-82
2021/11/16 12:06:36;;;;;;;8.80;4.93;;;;;;;;;;5012337;28;20501;-81
2021/11/16 12:09:03;;;;;;;7.63;4.55;;;;;;;;;;5014679;28;20136;-82
2021/11/16 12:11:29;;;;;;;7.25;4.25;;;;;;;;;;5013893;28;20030;-81
2021/11/16 12:13:57;;;;;;;9.80;4.70;;;;;;;;;;5014383;28;20057;-82
2021/11/16 12:16:30;;;;;;;6.97;4.28;;;;;;;;;;5013227;28;20104;-81
2021/11/16 12:19:05;;;;;;;8.68;4.50;;;;;;;;;;5010368;28;20054;-82
2021/11/16 12:21:50;;;;;;;9.00;4.82;;;;;;;;;;5010827;28;20088;-82
2021/11/16 12:24:18;;;;;;;9.63;5.13;;;;;;;;;;5012229;28;20073;-83
2021/11/16 12:26:53;;;;;;;8.27;4.50;;;;;;;;;;5010333;28;20054;-82
2021/11/16 12:29:21;;;;;;;8.70;4.60;;;;;;;;;;5008862;28;20041;-82
2021/11/16 12:31:49;;;;;;;7.93;4.47;;;;;;;;;;5012418;28;21314;-82
2021/11/16 12:34:48;;;;;;;8.50;4.88;;;;;;;;;;5011675;28;20571;-81
2021/11/16 12:37:29;;;;;;;9.63;4.78;;;;;;;;;;5017686;28;20041;-82
2021/11/16 12:39:57;;;;;;;9.60;5.05;;;;;;;;;;5009617;28;20038;-82
2021/11/16 12:42:23;;;;;;;8.63;4.57;;;;;;;;;;5004816;28;20050;-80
2021/11/16 12:44:59;;;;;;;9.05;5.00;;;;;;;;;;5010147;28;20062;-81
2021/11/16 12:47:26;;;;;;;6.97;4.18;;;;;;;;;;5009262;28;20069;-82
2021/11/16 12:49:54;;;;;;;7.10;4.32;;;;;;;;;;5011290;28;20087;-83
2021/11/16 12:52:24;;;;;;;9.35;4.70;;;;;;;;;;5014693;28;20444;-81
2021/11/16 12:54:50;;;;;;;8.77;4.50;;;;;;;;;;4991961;28;20459;-83
2021/11/16 12:57:17;;;;;;;7.00;4.00;;;;;;;;;;5011239;28;20072;-82
2021/11/16 12:59:43;;;;;;;8.70;5.30;;;;;;;;;;5007141;28;20053;-82
2021/11/16 13:02:24;;;;;;;8.23;4.63;;;;;;;;;;5008598;28;20038;-81
2021/11/16 13:04:52;;;;;;;9.23;4.65;;;;;;;;;;5003710;28;20568;-82
2021/11/16 13:07:35;;;;;;;13.98;5.32;;;;;;;;;;5010169;28;20061;-81
2021/11/16 13:10:01;;;;;;;10.50;5.20;;;;;;;;;;4992396;28;20552;-82
2021/11/16 13:12:36;;;;;;;8.82;4.72;;;;;;;;;;5018716;28;20038;-81
2021/11/16 13:15:06;;;;;;;8.10;4.47;;;;;;;;;;5010388;28;20057;-82
2021/11/16 13:17:55;;;;;;;8.00;4.88;;;;;;;;;;5008481;28;20498;-82
2021/11/16 13:20:27;;;;;;;8.23;4.82;;;;;;;;;;5007122;28;20038;-81
2021/11/16 13:22:58;;;;;;;8.20;4.72;;;;;;;;;;5007318;28;20057;-82
2021/11/16 13:25:43;;;;;;;8.38;4.85;;;;;;;;;;5009827;28;20061;-82
2021/11/16 13:28:24;;;;;;;10.77;5.32;;;;;;;;;;5010021;28;20030;-81
2021/11/16 13:30:50;;;;;;;7.57;4.65;;;;;;;;;;5000986;28;20506;-82
2021/11/16 13:33:35;;;;;;;11.57;4.93;;;;;;;;;;5010428;28;20559;-83
2021/11/16 13:36:08;;;;;;;9.38;5.55;;;;;;;;;;5008471;28;21954;-83
2021/11/16 13:38:53;;;;;;;8.05;4.88;;;;;;;;;;5007783;28;20088;-81
2021/11/16 13:41:38;;;;;;;11.27;5.30;;;;;;;;;;5006717;28;20512;-83
2021/11/16 13:44:12;;;;;;;9.20;5.13;;;;;;;;;;5007262;28;20162;-81
2021/11/16 13:46:39;;;;;;;10.85;5.40;;;;;;;;;;5008992;28;20045;-83
2021/11/16 13:49:06;;;;;;;11.05;5.53;;;;;;;;;;5010147;28;20084;-82
2021/11/16 13:51:32;;;;;;;10.57;5.43;;;;;;;;;;5007317;28;20053;-81
2021/11/16 13:54:04;;;;;;;8.27;5.10;;;;;;;;;;5008541;28;20114;-82
2021/11/16 13:56:31;;;;;;;12.00;5.97;;;;;;;;;;5010103;28;20085;-82
2021/11/16 13:58:58;;;;;;;10.38;5.72;;;;;;;;;;4990622;28;20140;-82
2021/11/16 14:01:32;;;;;;;8.52;5.38;;;;;;;;;;4992224;28;20564;-80
2021/11/16 14:04:10;;;;;;;8.93;5.50;;;;;;;;;;4970075;28;20640;-82
2021/11/16 14:06:36;;;;;;;12.02;6.18;;;;;;;;;;4989925;28;20069;-81
2021/11/16 14:09:22;;;;;;;10.73;5.90;;;;;;;;;;4987878;28;20065;-81
2021/11/16 14:11:50;;;;;;;9.95;6.03;;;;;;;;;;4989214;28;21628;-82
2021/11/16 14:14:17;;;;;;;10.02;6.13;;;;;;;;;;4990343;28;20491;-81
2021/11/16 14:16:44;;;;;;;10.25;5.88;;;;;;;;;;4986617;28;20120;-80
2021/11/16 14:19:11;;;;;;;11.05;5.72;;;;;;;;;;4993108;28;20046;-81
2021/11/16 14:21:38;;;;;;;11.80;6.38;;;;;;;;;;4990691;28;20058;-82
2021/11/16 14:24:05;;;;;;;9.82;5.72;;;;;;;;;;4970763;28;20164;-82
2021/11/16 14:26:32;;;;;;;11.02;6.13;;;;;;;;;;4991473;28;20062;-80
2021/11/16 14:29:00;;;;;;;10.82;6.28;;;;;;;;;;4992342;28;20064;-82
2021/11/16 14:31:32;;;;;;;11.80;5.85;;;;;;;;;;4990809;28;20121;-82
2021/11/16 14:34:00;;;;;;;15.60;8.15;;;;;;;;;;4987397;28;20066;-81
2021/11/16 14:36:29;;;;;;;16.52;7.40;;;;;;;;;;4974628;28;20058;-82
2021/11/16 14:39:02;;;;;;;14.85;7.15;;;;;;;;;;4989144;28;20128;-82
2021/11/16 14:41:28;;;;;;;13.05;6.95;;;;;;;;;;4979856;28;20065;-83
2021/11/16 14:44:10;;;;;;;14.38;7.63;;;;;;;;;;4989534;28;20501;-83
2021/11/16 14:46:37;;;;;;;11.68;7.07;;;;;;;;;;4990293;28;20129;-83
2021/11/16 14:49:06;;;;;;;14.40;7.18;;;;;;;;;;4990040;28;20050;-81
2021/11/16 14:51:39;;;;;;;14.50;7.03;;;;;;;;;;4965133;28;20664;-83
2021/11/16 14:54:07;;;;;;;16.00;7.68;;;;;;;;;;4990215;28;20065;-81
2021/11/16 14:56:36;;;;;;;13.18;7.68;;;;;;;;;;4993646;28;20634;-87
2021/11/16 14:59:04;;;;;;;13.55;7.13;;;;;;;;;;5009635;28;20053;-87
2021/11/16 15:01:33;;;;;;;14.15;7.22;;;;;;;;;;5009466;28;20061;-88
2021/11/16 15:04:01;;;;;;;12.20;6.85;;;;;;;;;;4991475;28;22113;-87
2021/11/16 15:06:29;;;;;;;11.18;6.68;;;;;;;;;;5010861;28;20547;-87